Time;durP1;ratioP1;P1;durP2;ratioP2;P2;SDS_P1;SDS_P2;PMS_P1;PMS_P2;Temp;Humidity;BMP_temperature;BMP_pressure;BME280_temperature;BME280_humidity;BME280_pressure;Samples;Min_cycle;Max_cycle;Signal;HPM_P1;HPM_P2
2021/10/20 00:02:26;;;;;;;12.75;7.63;;;;;;;;;;5073564;28;20079;-56
2021/10/20 00:04:54;;;;;;;15.20;7.03;;;;;;;;;;5073799;28;20044;-56
2021/10/20 00:07:21;;;;;;;18.98;8.48;;;;;;;;;;5081748;28;20403;-56
2021/10/20 00:09:47;;;;;;;15.80;7.78;;;;;;;;;;5079816;28;20119;-56
2021/10/20 00:12:13;;;;;;;16.65;7.57;;;;;;;;;;5076078;28;20098;-56
2021/10/20 00:14:40;;;;;;;16.40;7.72;;;;;;;;;;5075344;28;20496;-56
2021/10/20 00:17:06;;;;;;;29.00;8.52;;;;;;;;;;5072526;28;20457;-56
2021/10/20 00:19:32;;;;;;;14.25;7.68;;;;;;;;;;5075832;28;20063;-56
2021/10/20 00:21:59;;;;;;;17.17;8.55;;;;;;;;;;5085982;28;20047;-56
2021/10/20 00:24:25;;;;;;;12.73;6.57;;;;;;;;;;5090097;28;20071;-56
2021/10/20 00:26:52;;;;;;;10.93;6.85;;;;;;;;;;5078293;28;20531;-56
2021/10/20 00:29:18;;;;;;;15.55;6.90;;;;;;;;;;5091988;28;20044;-56
2021/10/20 00:31:44;;;;;;;16.00;8.32;;;;;;;;;;5091428;28;20067;-56
2021/10/20 00:34:11;;;;;;;13.18;7.47;;;;;;;;;;5089173;28;20101;-56
2021/10/20 00:36:37;;;;;;;15.75;7.70;;;;;;;;;;5081754;28;20431;-56
2021/10/20 00:39:03;;;;;;;15.43;7.53;;;;;;;;;;5077299;28;20071;-57
2021/10/20 00:41:30;;;;;;;13.48;7.55;;;;;;;;;;5091234;28;20071;-56
2021/10/20 00:43:57;;;;;;;18.00;8.05;;;;;;;;;;5077568;28;20068;-57
2021/10/20 00:46:27;;;;;;;12.18;6.38;;;;;;;;;;5079606;28;20079;-57
2021/10/20 00:48:53;;;;;;;12.55;7.28;;;;;;;;;;5081968;28;20044;-57
2021/10/20 00:51:20;;;;;;;15.63;8.32;;;;;;;;;;5083437;28;20043;-57
2021/10/20 00:53:46;;;;;;;17.05;8.27;;;;;;;;;;5079421;28;20130;-57
2021/10/20 00:56:12;;;;;;;13.18;7.20;;;;;;;;;;5075613;28;20044;-57
2021/10/20 00:58:39;;;;;;;17.30;7.88;;;;;;;;;;5079386;28;20044;-56
2021/10/20 01:01:05;;;;;;;14.07;6.55;;;;;;;;;;5079547;28;20065;-56
2021/10/20 01:03:31;;;;;;;12.35;7.32;;;;;;;;;;5079075;28;20052;-57
2021/10/20 01:05:58;;;;;;;14.30;7.45;;;;;;;;;;5079339;28;20101;-57
2021/10/20 01:08:24;;;;;;;14.27;7.22;;;;;;;;;;5076801;28;20071;-56
2021/10/20 01:10:50;;;;;;;24.73;7.25;;;;;;;;;;5090761;28;20047;-56
2021/10/20 01:13:16;;;;;;;13.90;6.82;;;;;;;;;;5089066;28;20396;-56
2021/10/20 01:15:43;;;;;;;11.13;7.72;;;;;;;;;;5085532;28;20060;-57
2021/10/20 01:18:11;;;;;;;21.23;8.23;;;;;;;;;;5087415;28;20040;-57
2021/10/20 01:20:38;;;;;;;12.52;7.20;;;;;;;;;;5077620;28;20439;-55
2021/10/20 01:23:05;;;;;;;12.10;6.90;;;;;;;;;;5075810;28;20095;-56
2021/10/20 01:25:31;;;;;;;9.23;5.80;;;;;;;;;;5080115;28;20128;-56
2021/10/20 01:27:58;;;;;;;12.88;7.50;;;;;;;;;;5086313;28;20055;-56
2021/10/20 01:30:24;;;;;;;12.35;6.90;;;;;;;;;;5088045;28;20064;-56
2021/10/20 01:32:50;;;;;;;12.27;6.68;;;;;;;;;;5081443;28;20040;-57
2021/10/20 01:35:17;;;;;;;10.77;6.18;;;;;;;;;;5090335;28;20518;-56
2021/10/20 01:37:44;;;;;;;16.48;7.68;;;;;;;;;;5077091;28;20125;-56
2021/10/20 01:40:11;;;;;;;12.23;6.90;;;;;;;;;;5073360;28;20495;-56
2021/10/20 01:42:38;;;;;;;11.95;6.85;;;;;;;;;;5072884;28;20045;-57
2021/10/20 01:45:14;;;;;;;16.02;7.45;;;;;;;;;;5072913;28;20520;-56
2021/10/20 01:47:40;;;;;;;12.95;7.10;;;;;;;;;;5077233;28;20086;-56
2021/10/20 01:50:07;;;;;;;17.15;8.02;;;;;;;;;;5089519;28;20138;-56
2021/10/20 01:52:34;;;;;;;11.43;6.50;;;;;;;;;;5078269;28;20086;-61
2021/10/20 01:55:00;;;;;;;15.07;7.80;;;;;;;;;;5078525;28;20073;-61
2021/10/20 01:57:26;;;;;;;16.58;9.15;;;;;;;;;;5078405;28;20045;-62
2021/10/20 01:59:53;;;;;;;16.15;8.40;;;;;;;;;;5078420;28;20074;-63
2021/10/20 02:02:21;;;;;;;20.85;8.13;;;;;;;;;;5074626;28;20079;-61
2021/10/20 02:04:47;;;;;;;14.75;8.10;;;;;;;;;;5076747;28;20044;-62
2021/10/20 02:07:14;;;;;;;14.00;7.82;;;;;;;;;;5083885;28;20098;-62
2021/10/20 02:09:40;;;;;;;14.55;8.45;;;;;;;;;;5082650;28;20466;-62
2021/10/20 02:12:07;;;;;;;15.60;7.82;;;;;;;;;;5078007;28;20078;-62
2021/10/20 02:14:33;;;;;;;14.25;7.93;;;;;;;;;;5076001;28;20506;-61
2021/10/20 02:17:00;;;;;;;15.68;8.57;;;;;;;;;;5076720;28;20048;-61
2021/10/20 02:19:27;;;;;;;14.63;8.75;;;;;;;;;;5078427;28;20056;-61
2021/10/20 02:21:57;;;;;;;16.30;8.05;;;;;;;;;;5078070;28;20044;-61
2021/10/20 02:24:23;;;;;;;16.08;9.15;;;;;;;;;;5077863;28;20040;-61
2021/10/20 02:26:50;;;;;;;15.85;7.63;;;;;;;;;;5083473;28;20075;-60
2021/10/20 02:29:16;;;;;;;19.83;8.63;;;;;;;;;;5081980;28;20040;-59
2021/10/20 02:31:46;;;;;;;14.25;7.43;;;;;;;;;;5088909;28;20576;-60
2021/10/20 02:34:17;;;;;;;13.18;8.00;;;;;;;;;;5087124;28;20132;-62
2021/10/20 02:36:43;;;;;;;14.55;9.65;;;;;;;;;;5081612;28;20123;-61
2021/10/20 02:39:09;;;;;;;16.60;8.15;;;;;;;;;;5077664;28;20043;-62
2021/10/20 02:41:37;;;;;;;15.32;8.43;;;;;;;;;;5076310;28;20071;-62
2021/10/20 02:44:03;;;;;;;15.18;8.80;;;;;;;;;;5074368;28;20071;-61
2021/10/20 02:46:30;;;;;;;18.10;8.70;;;;;;;;;;5082799;28;20045;-61
2021/10/20 02:48:56;;;;;;;18.00;8.43;;;;;;;;;;5079208;28;20072;-61
2021/10/20 02:51:23;;;;;;;13.88;7.97;;;;;;;;;;5077638;28;20040;-61
2021/10/20 02:53:50;;;;;;;15.57;8.63;;;;;;;;;;5077543;28;20521;-60
2021/10/20 02:56:17;;;;;;;16.38;9.80;;;;;;;;;;5072984;28;20052;-60
2021/10/20 02:58:44;;;;;;;14.40;7.85;;;;;;;;;;5076797;28;20119;-60
2021/10/20 03:01:11;;;;;;;15.82;8.70;;;;;;;;;;5077653;28;20041;-59
2021/10/20 03:03:37;;;;;;;16.30;8.98;;;;;;;;;;5077371;28;20147;-59
2021/10/20 03:06:03;;;;;;;14.60;7.43;;;;;;;;;;5076544;28;20175;-59
2021/10/20 03:08:30;;;;;;;12.02;7.32;;;;;;;;;;5089203;28;20044;-58
2021/10/20 03:10:57;;;;;;;15.18;8.98;;;;;;;;;;5075036;28;20086;-59
2021/10/20 03:13:24;;;;;;;16.50;8.07;;;;;;;;;;5076909;28;20044;-58
2021/10/20 03:15:50;;;;;;;14.25;8.80;;;;;;;;;;5080170;28;20532;-56
2021/10/20 03:18:16;;;;;;;11.45;6.90;;;;;;;;;;5081543;28;20079;-57
2021/10/20 03:20:43;;;;;;;12.98;6.97;;;;;;;;;;5079410;28;20093;-58
2021/10/20 03:23:09;;;;;;;10.82;6.10;;;;;;;;;;5073369;28;20408;-58
2021/10/20 03:25:35;;;;;;;11.68;6.85;;;;;;;;;;5076806;28;20507;-58
2021/10/20 03:28:02;;;;;;;22.30;7.85;;;;;;;;;;5076184;28;20051;-57
2021/10/20 03:30:28;;;;;;;12.93;6.72;;;;;;;;;;5079095;28;20044;-57
2021/10/20 03:32:54;;;;;;;10.82;6.93;;;;;;;;;;5087167;28;20507;-57
2021/10/20 03:35:21;;;;;;;10.88;5.88;;;;;;;;;;5072657;28;20076;-57
2021/10/20 03:37:47;;;;;;;12.43;6.57;;;;;;;;;;5075508;28;20051;-56
2021/10/20 03:40:14;;;;;;;11.25;6.43;;;;;;;;;;5077281;28;20048;-57
2021/10/20 03:42:41;;;;;;;17.10;7.65;;;;;;;;;;5076992;28;20044;-57
2021/10/20 03:45:07;;;;;;;8.48;4.28;;;;;;;;;;5076531;28;20060;-57
2021/10/20 03:47:34;;;;;;;11.95;6.75;;;;;;;;;;5088404;28;20496;-57
2021/10/20 03:50:00;;;;;;;11.95;6.05;;;;;;;;;;5088401;28;20139;-57
2021/10/20 03:52:26;;;;;;;7.25;4.70;;;;;;;;;;5076801;28;20055;-57
2021/10/20 03:54:53;;;;;;;15.32;7.45;;;;;;;;;;5076746;28;20060;-57
2021/10/20 03:57:19;;;;;;;9.95;5.93;;;;;;;;;;5076486;28;20041;-57
2021/10/20 03:59:45;;;;;;;11.48;7.40;;;;;;;;;;5083945;28;20035;-57
2021/10/20 04:02:13;;;;;;;13.75;6.00;;;;;;;;;;5081811;28;20067;-58
2021/10/20 04:04:40;;;;;;;14.80;5.72;;;;;;;;;;5079991;28;20052;-57
2021/10/20 04:07:06;;;;;;;11.70;6.25;;;;;;;;;;5080604;28;20064;-57
2021/10/20 04:09:32;;;;;;;8.50;5.25;;;;;;;;;;5080490;28;20515;-57
2021/10/20 04:11:59;;;;;;;8.23;4.60;;;;;;;;;;5076756;28;20051;-56
2021/10/20 04:14:25;;;;;;;9.90;6.13;;;;;;;;;;5085826;28;20040;-57
2021/10/20 04:16:52;;;;;;;12.18;6.55;;;;;;;;;;5083510;28;20075;-57
2021/10/20 04:19:18;;;;;;;8.00;4.95;;;;;;;;;;5089936;28;20066;-57
2021/10/20 04:21:44;;;;;;;12.10;5.55;;;;;;;;;;5084291;28;20068;-57
2021/10/20 04:24:11;;;;;;;10.77;5.80;;;;;;;;;;5076808;28;20115;-57
2021/10/20 04:26:37;;;;;;;9.23;6.13;;;;;;;;;;5090131;28;20055;-57
2021/10/20 04:29:03;;;;;;;10.57;5.03;;;;;;;;;;5088681;28;20133;-56
2021/10/20 04:31:30;;;;;;;11.57;6.20;;;;;;;;;;5088103;28;20557;-56
2021/10/20 04:33:56;;;;;;;9.00;4.57;;;;;;;;;;5088077;28;20047;-57
2021/10/20 04:36:22;;;;;;;9.85;5.93;;;;;;;;;;5083279;28;20135;-57
2021/10/20 04:38:49;;;;;;;11.05;6.63;;;;;;;;;;5081434;28;20137;-57
2021/10/20 04:41:15;;;;;;;11.35;6.05;;;;;;;;;;5074619;28;20044;-57
2021/10/20 04:43:41;;;;;;;9.82;5.95;;;;;;;;;;5088065;28;20081;-59
2021/10/20 04:46:08;;;;;;;11.55;6.20;;;;;;;;;;5086337;28;20087;-58
2021/10/20 04:48:34;;;;;;;6.57;4.72;;;;;;;;;;5082022;28;20036;-59
2021/10/20 04:51:00;;;;;;;10.95;4.53;;;;;;;;;;5086540;28;20537;-59
2021/10/20 04:53:27;;;;;;;4.70;2.90;;;;;;;;;;5088317;28;20082;-59
2021/10/20 04:55:53;;;;;;;11.27;5.57;;;;;;;;;;5086675;28;20505;-58
2021/10/20 04:58:19;;;;;;;13.63;6.00;;;;;;;;;;5086099;28;20494;-59
2021/10/20 05:00:46;;;;;;;9.57;5.55;;;;;;;;;;5081558;28;20079;-59
2021/10/20 05:03:12;;;;;;;9.80;4.93;;;;;;;;;;5086699;28;20036;-59
2021/10/20 05:05:38;;;;;;;10.20;5.57;;;;;;;;;;5086881;28;20044;-57
2021/10/20 05:08:05;;;;;;;8.27;5.10;;;;;;;;;;5090229;28;20067;-57
2021/10/20 05:10:31;;;;;;;7.20;4.15;;;;;;;;;;5086224;28;20044;-57
2021/10/20 05:12:57;;;;;;;10.23;5.22;;;;;;;;;;5087113;28;20044;-58
2021/10/20 05:15:24;;;;;;;11.75;5.57;;;;;;;;;;5082883;28;20557;-58
2021/10/20 05:17:50;;;;;;;10.95;5.22;;;;;;;;;;5085289;28;20044;-56
2021/10/20 05:20:17;;;;;;;12.13;5.35;;;;;;;;;;5083011;28;20047;-57
2021/10/20 05:22:44;;;;;;;12.30;4.72;;;;;;;;;;5088899;28;20496;-57
2021/10/20 05:25:12;;;;;;;8.93;5.18;;;;;;;;;;5083210;28;20118;-57
2021/10/20 05:27:38;;;;;;;9.13;5.75;;;;;;;;;;5083572;28;20037;-58
2021/10/20 05:30:05;;;;;;;9.32;5.40;;;;;;;;;;5086622;28;20496;-58
2021/10/20 05:32:32;;;;;;;17.92;5.95;;;;;;;;;;5085962;28;20115;-58
2021/10/20 05:34:58;;;;;;;6.57;4.38;;;;;;;;;;5081296;28;20051;-57
2021/10/20 05:37:25;;;;;;;8.13;5.47;;;;;;;;;;5083805;28;20127;-57
2021/10/20 05:39:53;;;;;;;11.20;5.32;;;;;;;;;;5081677;28;20036;-57
2021/10/20 05:42:19;;;;;;;7.63;4.18;;;;;;;;;;5084634;28;20040;-56
2021/10/20 05:44:46;;;;;;;7.72;5.03;;;;;;;;;;5084900;28;20072;-57
2021/10/20 05:47:13;;;;;;;11.13;5.20;;;;;;;;;;5087468;28;20080;-57
2021/10/20 05:49:39;;;;;;;11.35;5.25;;;;;;;;;;5085503;28;20050;-57
2021/10/20 05:52:07;;;;;;;8.98;4.97;;;;;;;;;;5082330;28;20145;-57
2021/10/20 05:54:33;;;;;;;7.72;4.57;;;;;;;;;;5083550;28;20048;-57
2021/10/20 05:57:00;;;;;;;7.97;5.70;;;;;;;;;;5087571;28;20066;-57
2021/10/20 05:59:26;;;;;;;10.80;6.28;;;;;;;;;;5084497;28;20068;-58
2021/10/20 06:01:53;;;;;;;11.93;5.70;;;;;;;;;;5086040;28;20044;-58
2021/10/20 06:04:19;;;;;;;8.32;5.18;;;;;;;;;;5087612;28;20059;-58
2021/10/20 06:06:47;;;;;;;11.05;6.07;;;;;;;;;;5080886;28;20068;-58
2021/10/20 06:09:13;;;;;;;8.10;4.43;;;;;;;;;;5075870;28;20040;-58
2021/10/20 06:11:39;;;;;;;12.45;6.50;;;;;;;;;;5083905;28;20552;-57
2021/10/20 06:14:06;;;;;;;8.90;4.63;;;;;;;;;;5078786;28;20078;-58
2021/10/20 06:16:35;;;;;;;7.90;5.25;;;;;;;;;;5084675;28;20099;-58
2021/10/20 06:19:02;;;;;;;10.30;5.53;;;;;;;;;;5078911;28;20055;-58
2021/10/20 06:21:29;;;;;;;11.10;6.28;;;;;;;;;;5079457;28;20047;-57
2021/10/20 06:23:55;;;;;;;15.98;6.10;;;;;;;;;;5087764;28;20069;-58
2021/10/20 06:26:21;;;;;;;11.52;6.10;;;;;;;;;;5073544;28;20177;-58
2021/10/20 06:28:48;;;;;;;8.73;5.50;;;;;;;;;;5085930;28;20079;-57
2021/10/20 06:31:15;;;;;;;13.93;6.72;;;;;;;;;;5085022;28;20044;-57
2021/10/20 06:33:42;;;;;;;12.25;7.30;;;;;;;;;;5088327;28;20037;-58
2021/10/20 06:36:29;;;;;;;9.55;5.45;;;;;;;;;;5086082;28;20102;-58
2021/10/20 06:38:55;;;;;;;10.73;5.30;;;;;;;;;;5087397;28;20051;-57
2021/10/20 06:41:22;;;;;;;13.93;5.78;;;;;;;;;;5073240;28;20512;-57
2021/10/20 06:43:50;;;;;;;11.10;5.45;;;;;;;;;;5079162;28;20048;-57
2021/10/20 06:46:17;;;;;;;11.50;5.82;;;;;;;;;;5084974;28;20040;-57
2021/10/20 06:48:44;;;;;;;9.65;6.53;;;;;;;;;;5073093;28;20415;-57
2021/10/20 06:51:10;;;;;;;6.78;4.22;;;;;;;;;;5076026;28;21139;-57
2021/10/20 06:53:37;;;;;;;13.30;6.35;;;;;;;;;;5076649;28;20045;-57
2021/10/20 06:56:05;;;;;;;19.88;7.60;;;;;;;;;;5079670;28;20080;-57
2021/10/20 06:58:31;;;;;;;12.25;5.25;;;;;;;;;;5075662;28;20075;-57
2021/10/20 07:00:58;;;;;;;12.25;4.90;;;;;;;;;;5087640;28;20119;-57
2021/10/20 07:03:24;;;;;;;10.50;6.35;;;;;;;;;;5076195;28;20432;-57
2021/10/20 07:05:50;;;;;;;8.85;4.80;;;;;;;;;;5084471;28;20454;-57
2021/10/20 07:08:17;;;;;;;7.95;4.45;;;;;;;;;;5079922;28;20080;-57
2021/10/20 07:10:43;;;;;;;15.40;6.43;;;;;;;;;;5076539;28;20129;-58
2021/10/20 07:13:10;;;;;;;9.43;5.70;;;;;;;;;;5085561;28;20123;-58
2021/10/20 07:15:36;;;;;;;9.93;5.40;;;;;;;;;;5073024;28;20052;-57
2021/10/20 07:18:03;;;;;;;12.32;6.18;;;;;;;;;;5087388;28;20087;-57
2021/10/20 07:20:29;;;;;;;13.10;6.13;;;;;;;;;;5078050;28;20060;-57
2021/10/20 07:22:55;;;;;;;7.55;4.93;;;;;;;;;;5077905;28;20407;-57
2021/10/20 07:25:22;;;;;;;13.13;5.03;;;;;;;;;;5087549;28;20075;-57
2021/10/20 07:27:48;;;;;;;14.23;6.68;;;;;;;;;;5072358;28;20036;-57
2021/10/20 07:30:15;;;;;;;11.63;4.93;;;;;;;;;;5074093;28;20056;-57
2021/10/20 07:32:43;;;;;;;8.38;5.03;;;;;;;;;;5084357;28;20075;-57
2021/10/20 07:35:10;;;;;;;9.43;4.93;;;;;;;;;;5084638;28;20052;-58
2021/10/20 07:37:37;;;;;;;11.18;5.78;;;;;;;;;;5080359;28;20037;-58
2021/10/20 07:40:05;;;;;;;7.20;4.18;;;;;;;;;;5092067;28;20084;-58
2021/10/20 07:42:33;;;;;;;6.72;4.60;;;;;;;;;;5077403;28;20056;-58
2021/10/20 07:44:59;;;;;;;10.35;5.82;;;;;;;;;;5079514;28;20052;-58
2021/10/20 07:47:26;;;;;;;9.45;4.85;;;;;;;;;;5079343;28;20090;-58
2021/10/20 07:49:53;;;;;;;10.32;5.32;;;;;;;;;;5079837;28;20047;-57
2021/10/20 07:52:23;;;;;;;5.28;4.00;;;;;;;;;;5079979;28;20067;-58
2021/10/20 07:54:49;;;;;;;9.35;6.22;;;;;;;;;;5089105;28;20087;-58
2021/10/20 07:57:16;;;;;;;8.40;4.82;;;;;;;;;;5078742;28;20045;-57
2021/10/20 07:59:42;;;;;;;7.88;4.50;;;;;;;;;;5089341;28;20051;-57
2021/10/20 08:02:09;;;;;;;9.77;3.70;;;;;;;;;;5084724;28;20129;-58
2021/10/20 08:04:35;;;;;;;4.55;3.35;;;;;;;;;;5080031;28;20040;-57
2021/10/20 08:07:01;;;;;;;6.00;3.40;;;;;;;;;;5082254;28;20040;-56
2021/10/20 08:09:28;;;;;;;7.72;4.32;;;;;;;;;;5083252;28;20528;-57
2021/10/20 08:11:54;;;;;;;10.45;5.03;;;;;;;;;;5079657;28;20040;-56
2021/10/20 08:14:20;;;;;;;6.32;4.30;;;;;;;;;;5076523;28;20134;-57
2021/10/20 08:16:47;;;;;;;9.70;5.25;;;;;;;;;;5093054;28;20129;-56
2021/10/20 08:19:13;;;;;;;8.80;5.20;;;;;;;;;;5079529;28;20527;-56
2021/10/20 08:21:39;;;;;;;8.50;3.78;;;;;;;;;;5079111;28;20502;-56
2021/10/20 08:24:06;;;;;;;9.00;5.05;;;;;;;;;;5079765;28;20044;-56
2021/10/20 08:26:33;;;;;;;10.23;5.43;;;;;;;;;;5089022;28;20488;-56
2021/10/20 08:28:59;;;;;;;9.93;5.43;;;;;;;;;;5076732;28;20557;-56
2021/10/20 08:31:25;;;;;;;7.32;4.75;;;;;;;;;;5076012;28;20446;-57
2021/10/20 08:33:52;;;;;;;9.85;4.60;;;;;;;;;;5081918;28;20097;-57
2021/10/20 08:36:18;;;;;;;8.82;4.53;;;;;;;;;;5084358;28;20055;-57
2021/10/20 08:38:44;;;;;;;12.30;5.07;;;;;;;;;;5078685;28;20071;-57
2021/10/20 08:41:11;;;;;;;8.90;4.63;;;;;;;;;;5074685;28;20089;-57
2021/10/20 08:43:38;;;;;;;8.32;4.45;;;;;;;;;;5079274;28;20053;-57
2021/10/20 08:46:05;;;;;;;7.82;4.63;;;;;;;;;;5089127;28;20055;-56
2021/10/20 08:48:32;;;;;;;6.25;4.05;;;;;;;;;;5091350;28;20071;-57
2021/10/20 08:51:01;;;;;;;7.20;4.05;;;;;;;;;;5079219;28;20051;-58
2021/10/20 08:53:27;;;;;;;9.20;4.78;;;;;;;;;;5085512;28;20796;-58
2021/10/20 08:55:54;;;;;;;6.47;3.70;;;;;;;;;;5086292;28;20412;-57
2021/10/20 08:58:21;;;;;;;6.22;3.97;;;;;;;;;;5090689;28;20051;-56
2021/10/20 09:00:48;;;;;;;9.60;3.42;;;;;;;;;;5074518;28;20551;-57
2021/10/20 09:03:15;;;;;;;8.68;4.60;;;;;;;;;;5078079;28;20044;-57
2021/10/20 09:05:41;;;;;;;8.20;4.65;;;;;;;;;;5079314;28;20068;-57
2021/10/20 09:08:08;;;;;;;7.13;4.45;;;;;;;;;;5079287;28;20084;-57
2021/10/20 09:10:34;;;;;;;6.85;4.20;;;;;;;;;;5078879;28;20497;-57
2021/10/20 09:13:01;;;;;;;6.30;4.63;;;;;;;;;;5076372;28;20131;-57
2021/10/20 09:15:30;;;;;;;5.65;3.50;;;;;;;;;;5075222;28;20077;-59
2021/10/20 09:18:01;;;;;;;8.43;4.38;;;;;;;;;;5078402;28;20128;-58
2021/10/20 09:20:31;;;;;;;7.05;4.50;;;;;;;;;;5082161;28;20424;-58
2021/10/20 09:23:00;;;;;;;8.48;5.15;;;;;;;;;;5083393;28;20056;-58
2021/10/20 09:25:31;;;;;;;10.43;4.22;;;;;;;;;;5078449;28;20047;-58
2021/10/20 09:27:59;;;;;;;8.05;4.95;;;;;;;;;;5089842;28;20080;-57
2021/10/20 09:30:27;;;;;;;7.93;4.72;;;;;;;;;;5075460;28;20044;-57
2021/10/20 09:32:53;;;;;;;28.65;4.70;;;;;;;;;;5089229;28;20048;-57
2021/10/20 09:35:20;;;;;;;8.75;4.70;;;;;;;;;;5081847;28;20075;-57
2021/10/20 09:37:46;;;;;;;7.82;4.65;;;;;;;;;;5078739;28;20180;-56
2021/10/20 09:40:14;;;;;;;9.63;4.40;;;;;;;;;;5078068;28;20039;-57
2021/10/20 09:42:47;;;;;;;7.38;4.97;;;;;;;;;;5074422;28;20067;-57
2021/10/20 09:45:14;;;;;;;6.10;4.13;;;;;;;;;;5089863;28;20097;-57
2021/10/20 09:47:42;;;;;;;7.63;3.92;;;;;;;;;;5080563;28;20055;-57
2021/10/20 09:50:08;;;;;;;5.53;3.35;;;;;;;;;;5082358;28;20047;-56
2021/10/20 09:52:51;;;;;;;8.45;4.30;;;;;;;;;;5089820;28;20071;-57
2021/10/20 09:55:28;;;;;;;6.40;4.13;;;;;;;;;;5084195;28;20045;-57
2021/10/20 09:57:55;;;;;;;6.22;3.60;;;;;;;;;;5084075;28;20047;-57
2021/10/20 10:00:22;;;;;;;9.70;4.80;;;;;;;;;;5086779;28;20076;-57
2021/10/20 10:02:49;;;;;;;6.65;3.60;;;;;;;;;;5086763;28;20112;-57
2021/10/20 10:05:15;;;;;;;9.27;4.50;;;;;;;;;;5080682;28;20044;-57
2021/10/20 10:07:41;;;;;;;5.93;3.72;;;;;;;;;;5078247;28;20076;-58
2021/10/20 10:10:08;;;;;;;6.40;3.25;;;;;;;;;;5075377;28;20129;-56
2021/10/20 10:12:34;;;;;;;8.25;4.93;;;;;;;;;;5090122;28;20123;-57
2021/10/20 10:15:11;;;;;;;7.70;3.88;;;;;;;;;;5090543;28;20056;-56
2021/10/20 10:17:40;;;;;;;7.65;4.15;;;;;;;;;;5078253;28;20106;-55
2021/10/20 10:20:08;;;;;;;8.00;4.32;;;;;;;;;;5077587;28;20084;-56
2021/10/20 10:22:46;;;;;;;8.65;5.00;;;;;;;;;;5078152;28;20122;-55
2021/10/20 10:25:13;;;;;;;7.65;4.20;;;;;;;;;;5087798;28;20458;-55
2021/10/20 10:27:43;;;;;;;11.40;4.85;;;;;;;;;;5078306;28;20044;-56
2021/10/20 10:30:27;;;;;;;6.50;4.10;;;;;;;;;;5073781;28;20048;-56
2021/10/20 10:32:54;;;;;;;;;;;;;;;;;;5080530;28;20083;-55
2021/10/20 10:35:21;;;;;;;7.55;3.63;;;;;;;;;;5084611;28;19951;-55
2021/10/20 10:37:47;;;;;;;6.93;4.40;;;;;;;;;;5086299;28;20040;-56
2021/10/20 10:40:19;;;;;;;5.72;4.13;;;;;;;;;;5087229;28;20119;-55
2021/10/20 10:42:47;;;;;;;7.45;3.92;;;;;;;;;;5073383;28;20048;-56
2021/10/20 10:45:14;;;;;;;5.18;3.53;;;;;;;;;;5082951;28;20049;-56
2021/10/20 10:47:58;;;;;;;7.63;4.45;;;;;;;;;;5071757;28;20053;-57
2021/10/20 10:50:43;;;;;;;7.78;4.35;;;;;;;;;;5072115;28;20056;-57
2021/10/20 10:53:10;;;;;;;6.97;3.60;;;;;;;;;;5072015;28;20052;-57
2021/10/20 10:55:36;;;;;;;9.45;4.50;;;;;;;;;;5083531;28;20058;-57
2021/10/20 10:58:04;;;;;;;7.82;4.15;;;;;;;;;;5085235;28;20056;-56
2021/10/20 11:00:35;;;;;;;6.68;4.05;;;;;;;;;;5086505;28;20072;-57
2021/10/20 11:03:13;;;;;;;6.85;4.25;;;;;;;;;;5086133;28;20071;-57
2021/10/20 11:05:47;;;;;;;6.43;4.70;;;;;;;;;;5087379;28;20091;-56
2021/10/20 11:08:13;;;;;;;7.87;4.07;;;;;;;;;;5083078;28;20044;-57
2021/10/20 11:10:41;;;;;;;7.40;3.53;;;;;;;;;;5074757;28;20131;-57
2021/10/20 11:13:08;;;;;;;8.98;3.33;;;;;;;;;;5079127;28;20123;-56
2021/10/20 11:15:35;;;;;;;8.43;4.03;;;;;;;;;;5078776;28;20082;-57
2021/10/20 11:18:01;;;;;;;4.35;3.13;;;;;;;;;;5083796;28;20051;-55
2021/10/20 11:20:29;;;;;;;6.25;3.70;;;;;;;;;;5088763;28;20141;-56
2021/10/20 11:22:56;;;;;;;7.22;3.80;;;;;;;;;;5088179;28;20055;-57
2021/10/20 11:25:24;;;;;;;14.23;4.07;;;;;;;;;;5075534;28;20511;-56
2021/10/20 11:27:51;;;;;;;5.28;3.60;;;;;;;;;;5083944;28;20084;-57
2021/10/20 11:30:19;;;;;;;6.47;3.67;;;;;;;;;;5085691;28;20044;-56
2021/10/20 11:32:46;;;;;;;5.38;3.15;;;;;;;;;;5085627;28;20127;-56
2021/10/20 11:35:18;;;;;;;5.68;3.22;;;;;;;;;;5089883;28;20070;-56
2021/10/20 11:37:51;;;;;;;7.18;3.65;;;;;;;;;;5088363;28;20488;-56
2021/10/20 11:40:17;;;;;;;4.75;3.22;;;;;;;;;;5077492;28;20077;-57
2021/10/20 11:42:44;;;;;;;5.30;3.28;;;;;;;;;;5076873;28;20441;-57
2021/10/20 11:45:10;;;;;;;9.65;3.60;;;;;;;;;;5077275;28;20062;-57
2021/10/20 11:47:41;;;;;;;6.85;3.60;;;;;;;;;;5076833;28;20064;-57
2021/10/20 11:50:10;;;;;;;5.10;2.90;;;;;;;;;;5084231;28;20055;-58
2021/10/20 11:52:37;;;;;;;7.13;3.83;;;;;;;;;;5084896;28;20060;-57
2021/10/20 11:55:04;;;;;;;7.00;2.97;;;;;;;;;;5087880;28;20040;-56
2021/10/20 11:57:31;;;;;;;7.35;3.45;;;;;;;;;;5087439;28;20554;-57
2021/10/20 11:59:57;;;;;;;8.05;3.58;;;;;;;;;;5076526;28;20515;-57
2021/10/20 12:02:30;;;;;;;4.60;2.72;;;;;;;;;;5073795;28;20274;-56
2021/10/20 12:04:56;;;;;;;11.95;4.35;;;;;;;;;;5073110;28;20067;-57
2021/10/20 12:07:30;;;;;;;5.63;4.05;;;;;;;;;;5075906;28;20040;-57
2021/10/20 12:09:58;;;;;;;8.30;3.85;;;;;;;;;;5081543;28;20040;-56
2021/10/20 12:12:25;;;;;;;6.15;3.80;;;;;;;;;;5085058;28;20068;-56
2021/10/20 12:14:55;;;;;;;5.00;3.00;;;;;;;;;;5085153;28;20064;-56
2021/10/20 12:17:22;;;;;;;7.15;4.00;;;;;;;;;;5088760;28;20052;-56
2021/10/20 12:19:48;;;;;;;5.68;3.72;;;;;;;;;;5087945;28;20076;-56
2021/10/20 12:22:15;;;;;;;10.07;3.35;;;;;;;;;;5081066;28;20040;-56
2021/10/20 12:24:45;;;;;;;4.80;3.47;;;;;;;;;;5088343;28;20042;-56
2021/10/20 12:27:11;;;;;;;6.18;3.75;;;;;;;;;;5089299;28;20404;-56
2021/10/20 12:29:38;;;;;;;5.43;3.25;;;;;;;;;;5090685;28;20318;-56
2021/10/20 12:32:07;;;;;;;7.13;3.83;;;;;;;;;;5091810;28;20059;-56
2021/10/20 12:34:33;;;;;;;5.60;3.90;;;;;;;;;;5090668;28;20071;-56
2021/10/20 12:37:00;;;;;;;7.35;3.95;;;;;;;;;;5088717;28;20040;-57
2021/10/20 12:39:27;;;;;;;12.00;4.82;;;;;;;;;;5097508;28;20044;-57
2021/10/20 12:41:53;;;;;;;7.68;3.33;;;;;;;;;;5093355;28;20075;-57
2021/10/20 12:44:24;;;;;;;9.32;4.30;;;;;;;;;;5091820;28;20404;-57
2021/10/20 12:46:50;;;;;;;7.03;3.80;;;;;;;;;;5094450;28;20495;-56
2021/10/20 12:49:17;;;;;;;9.75;4.10;;;;;;;;;;5093871;28;20068;-56
2021/10/20 12:51:44;;;;;;;12.55;3.95;;;;;;;;;;5093142;28;20047;-56
2021/10/20 12:54:10;;;;;;;7.80;3.22;;;;;;;;;;5092241;28;20055;-57
2021/10/20 12:56:39;;;;;;;6.70;3.53;;;;;;;;;;5092458;28;20491;-56
2021/10/20 12:59:10;;;;;;;9.88;4.13;;;;;;;;;;5092913;28;20063;-55
2021/10/20 13:01:37;;;;;;;5.80;3.90;;;;;;;;;;5094885;28;20047;-55
2021/10/20 13:04:04;;;;;;;8.73;3.70;;;;;;;;;;5092501;28;20079;-55
2021/10/20 13:06:30;;;;;;;6.43;3.70;;;;;;;;;;5092923;28;20089;-55
2021/10/20 13:08:57;;;;;;;6.53;3.60;;;;;;;;;;5092826;28;20476;-57
2021/10/20 13:11:23;;;;;;;7.28;3.15;;;;;;;;;;5090981;28;20040;-56
2021/10/20 13:13:50;;;;;;;6.35;3.72;;;;;;;;;;5081632;28;20040;-56
2021/10/20 13:16:16;;;;;;;6.82;3.22;;;;;;;;;;5088547;28;20041;-57
2021/10/20 13:18:42;;;;;;;6.18;3.30;;;;;;;;;;5092120;28;20509;-55
2021/10/20 13:21:09;;;;;;;7.47;3.42;;;;;;;;;;5090097;28;20173;-56
2021/10/20 13:23:36;;;;;;;8.73;3.45;;;;;;;;;;5082915;28;20050;-56
2021/10/20 13:26:04;;;;;;;6.25;3.47;;;;;;;;;;5088330;28;20508;-54
2021/10/20 13:28:31;;;;;;;6.40;3.17;;;;;;;;;;5090448;28;20403;-55
2021/10/20 13:30:57;;;;;;;4.40;2.90;;;;;;;;;;5087852;28;20070;-56
2021/10/20 13:33:24;;;;;;;7.50;3.42;;;;;;;;;;5087727;28;20064;-56
2021/10/20 13:35:50;;;;;;;9.88;3.03;;;;;;;;;;5090668;28;20072;-57
2021/10/20 13:38:20;;;;;;;8.70;2.63;;;;;;;;;;5084429;28;20045;-57
2021/10/20 13:40:47;;;;;;;5.40;3.65;;;;;;;;;;5088197;28;20072;-56
2021/10/20 13:43:14;;;;;;;6.60;3.90;;;;;;;;;;5089358;28;20047;-57
2021/10/20 13:45:40;;;;;;;6.45;3.58;;;;;;;;;;5087550;28;20518;-56
2021/10/20 13:48:07;;;;;;;5.35;3.08;;;;;;;;;;5087431;28;20072;-55
2021/10/20 13:50:34;;;;;;;6.22;3.08;;;;;;;;;;5091725;28;20051;-56
2021/10/20 13:53:00;;;;;;;4.75;2.88;;;;;;;;;;5084473;28;20098;-56
2021/10/20 13:55:30;;;;;;;5.15;3.22;;;;;;;;;;5091258;28;20076;-56
2021/10/20 13:57:57;;;;;;;3.90;2.92;;;;;;;;;;5080420;28;20045;-56
2021/10/20 14:00:24;;;;;;;5.72;3.20;;;;;;;;;;5078825;28;20046;-57
2021/10/20 14:02:50;;;;;;;4.85;2.88;;;;;;;;;;5074542;28;20439;-57
2021/10/20 14:05:17;;;;;;;6.35;3.30;;;;;;;;;;5090370;28;20060;-57
2021/10/20 14:07:43;;;;;;;10.50;3.63;;;;;;;;;;5085386;28;20507;-56
2021/10/20 14:10:10;;;;;;;5.28;2.70;;;;;;;;;;5083812;28;20492;-57
2021/10/20 14:12:38;;;;;;;5.22;3.20;;;;;;;;;;5087443;28;20044;-57
2021/10/20 14:15:08;;;;;;;6.80;3.22;;;;;;;;;;5079276;28;20500;-57
2021/10/20 14:17:35;;;;;;;5.03;2.60;;;;;;;;;;5078815;28;20388;-56
2021/10/20 14:20:03;;;;;;;5.20;3.25;;;;;;;;;;5078587;28;20055;-57
2021/10/20 14:22:30;;;;;;;8.85;2.90;;;;;;;;;;5079483;28;20048;-56
2021/10/20 14:24:57;;;;;;;9.27;2.97;;;;;;;;;;5089053;28;20075;-56
2021/10/20 14:27:24;;;;;;;4.60;2.85;;;;;;;;;;5089192;28;20114;-56
2021/10/20 14:29:51;;;;;;;8.35;3.28;;;;;;;;;;5086434;28;20488;-56
2021/10/20 14:32:18;;;;;;;6.57;3.05;;;;;;;;;;5086947;28;20093;-56
2021/10/20 14:34:44;;;;;;;8.45;3.10;;;;;;;;;;5086338;28;20113;-56
2021/10/20 14:37:11;;;;;;;6.53;3.72;;;;;;;;;;5089758;28;20047;-56
2021/10/20 14:39:37;;;;;;;4.57;3.10;;;;;;;;;;5075104;28;20068;-56